Аэропорт: Минеральные Воды. Минеральные Воды

ICAO: URMM

METAR:
2019/01/21 22:30
URMM 212230Z 20002MPS 0250 0150NW R12/0500N FZFG VV001 M02/M03 Q1013 R12/090070 NOSIG RMK QBB050 MT OBSC QFE732/0976
METAR:
2019/01/21 21:21
TAF URMM 211958Z 2121/2221 26003G08MPS 0300 FZFG OVC002 TX02/2211Z TNM02/2203Z 
      TEMPO 2121/2203 1200 BR OVC003 
      BECMG 2203/2205 5000 BR OVC011 
      TEMPO 2205/2221 30005G12MPS 3100 -SHRASN BR BKN011 BKN020CB